createdAt,value
2023-02-21T00:02:12.242Z,10.77
2023-02-21T00:04:58.223Z,9.55
2023-02-21T00:07:44.935Z,10.75
2023-02-21T00:10:33.636Z,10.70
2023-02-21T00:13:19.956Z,11.73
2023-02-21T00:16:05.894Z,11.00
2023-02-21T00:18:55.182Z,11.70
2023-02-21T00:21:42.211Z,10.95
2023-02-21T00:24:33.323Z,12.50
2023-02-21T00:27:19.212Z,11.57
2023-02-21T00:30:07.495Z,10.48
2023-02-21T00:32:54.264Z,10.52
2023-02-21T00:35:40.898Z,9.48
2023-02-21T00:38:26.851Z,10.45
2023-02-21T00:41:12.771Z,10.82
2023-02-21T00:43:59.486Z,11.15
2023-02-21T00:46:46.220Z,12.50
2023-02-21T00:49:32.264Z,13.13
2023-02-21T00:52:18.070Z,10.25
2023-02-21T00:55:04.496Z,10.50
2023-02-21T00:57:50.424Z,12.52
2023-02-21T01:00:39.852Z,10.93
2023-02-21T01:03:26.981Z,13.02
2023-02-21T01:06:15.476Z,9.07
2023-02-21T01:09:06.508Z,10.35
2023-02-21T01:11:57.361Z,10.55
2023-02-21T01:14:43.234Z,15.18
2023-02-21T01:17:29.225Z,10.02
2023-02-21T01:20:15.184Z,11.05
2023-02-21T01:23:01.318Z,11.68
2023-02-21T01:25:47.145Z,12.70
2023-02-21T01:28:33.343Z,12.73
2023-02-21T01:31:22.838Z,12.30
2023-02-21T01:34:09.535Z,10.65
2023-02-21T01:36:55.685Z,12.15
2023-02-21T01:39:41.974Z,11.40
2023-02-21T01:42:29.336Z,10.98
2023-02-21T01:45:40.263Z,11.80
2023-02-21T01:48:30.350Z,11.38
2023-02-21T01:51:18.202Z,11.85
2023-02-21T01:54:05.106Z,11.52
2023-02-21T01:56:51.907Z,12.60
2023-02-21T01:59:40.444Z,11.98
2023-02-21T02:02:52.332Z,14.23
2023-02-21T02:05:39.826Z,12.90
2023-02-21T02:08:26.248Z,8.18
2023-02-21T02:11:27.384Z,12.98
2023-02-21T02:14:02.203Z,7.85
2023-02-21T02:16:53.119Z,12.98
2023-02-21T02:20:11.538Z,13.30
2023-02-21T02:23:21.847Z,14.48
2023-02-21T02:26:25.284Z,15.60
2023-02-21T02:29:07.449Z,15.90
2023-02-21T02:31:53.056Z,14.63
2023-02-21T02:34:26.133Z,15.60
2023-02-21T02:37:13.449Z,14.52
2023-02-21T02:39:49.810Z,13.68
2023-02-21T02:42:31.324Z,15.20
2023-02-21T02:45:05.219Z,18.33
2023-02-21T02:47:37.584Z,15.18
2023-02-21T02:50:09.846Z,17.80
2023-02-21T02:52:38.949Z,12.98
2023-02-21T02:55:28.500Z,16.13
2023-02-21T02:57:59.360Z,19.88
2023-02-21T03:00:27.939Z,17.10
2023-02-21T03:03:03.680Z,15.77
2023-02-21T03:05:51.614Z,15.55
2023-02-21T03:08:43.239Z,19.05
2023-02-21T03:11:25.550Z,15.70
2023-02-21T03:14:15.941Z,15.68
2023-02-21T03:16:55.686Z,16.13
2023-02-21T03:19:28.075Z,12.95
2023-02-21T03:22:24.705Z,13.23
2023-02-21T03:24:55.944Z,14.80
2023-02-21T03:27:26.780Z,16.55
2023-02-21T03:30:13.146Z,15.25
2023-02-21T03:32:46.403Z,14.63
2023-02-21T03:35:15.484Z,15.55
2023-02-21T03:37:47.053Z,15.23
2023-02-21T03:40:26.661Z,14.80
2023-02-21T03:42:56.167Z,16.75
2023-02-21T03:45:25.014Z,16.08
2023-02-21T03:48:15.508Z,16.33
2023-02-21T03:50:44.014Z,18.27
2023-02-21T03:53:13.170Z,17.58
2023-02-21T03:55:49.588Z,18.20
2023-02-21T03:58:25.653Z,17.77
2023-02-21T04:00:55.927Z,19.98
2023-02-21T04:03:24.012Z,16.35
2023-02-21T04:05:58.509Z,18.17
2023-02-21T04:08:26.525Z,20.17
2023-02-21T04:10:54.068Z,19.25
2023-02-21T04:13:24.652Z,15.70
2023-02-21T04:15:55.638Z,16.27
2023-02-21T04:18:29.690Z,19.20
2023-02-21T04:21:01.200Z,15.57
2023-02-21T04:23:32.167Z,17.92
2023-02-21T04:26:00.030Z,19.05
2023-02-21T04:29:02.782Z,17.10
2023-02-21T04:31:35.167Z,17.63
2023-02-21T04:34:23.370Z,17.02
2023-02-21T04:37:20.089Z,19.75
2023-02-21T04:39:47.911Z,19.05
2023-02-21T04:42:19.744Z,17.85
2023-02-21T04:44:59.830Z,17.33
2023-02-21T04:47:28.803Z,17.13
2023-02-21T04:49:56.292Z,18.55
2023-02-21T04:52:25.821Z,16.27
2023-02-21T04:54:56.404Z,20.60
2023-02-21T04:57:24.761Z,19.70
2023-02-21T05:00:00.252Z,14.75
2023-02-21T05:02:28.224Z,17.75
2023-02-21T05:04:55.924Z,18.48
2023-02-21T05:07:23.879Z,20.08
2023-02-21T05:09:53.982Z,20.58
2023-02-21T05:12:21.704Z,17.17
2023-02-21T05:14:52.749Z,14.77
2023-02-21T05:17:20.485Z,19.02
2023-02-21T05:19:48.567Z,16.63
2023-02-21T05:22:20.476Z,14.57
2023-02-21T05:24:53.887Z,17.92
2023-02-21T05:27:23.886Z,12.75
2023-02-21T05:29:53.987Z,17.05
2023-02-21T05:32:24.258Z,17.20
2023-02-21T05:34:52.216Z,19.35
2023-02-21T05:37:21.499Z,19.05
2023-02-21T05:39:49.270Z,22.20
2023-02-21T05:42:19.373Z,20.15
2023-02-21T05:44:47.796Z,19.33
2023-02-21T05:47:18.292Z,17.25
2023-02-21T05:49:48.678Z,18.00
2023-02-21T05:52:17.699Z,16.95
2023-02-21T05:54:46.923Z,18.65
2023-02-21T05:57:14.772Z,16.27
2023-02-21T05:59:43.608Z,19.92
2023-02-21T06:02:17.412Z,21.80
2023-02-21T06:04:47.990Z,21.57
2023-02-21T06:07:19.548Z,20.80
2023-02-21T06:09:49.809Z,20.30
2023-02-21T06:12:17.460Z,22.27
2023-02-21T06:14:45.122Z,20.38
2023-02-21T06:17:13.409Z,22.38
2023-02-21T06:19:41.133Z,21.42
2023-02-21T06:22:08.806Z,22.27
2023-02-21T06:24:36.397Z,18.10
2023-02-21T06:27:04.490Z,21.77
2023-02-21T06:29:38.489Z,21.10
2023-02-21T06:32:06.135Z,19.85
2023-02-21T06:34:33.856Z,19.23
2023-02-21T06:37:01.727Z,19.65
2023-02-21T06:39:29.398Z,18.08
2023-02-21T06:41:57.035Z,21.48
2023-02-21T06:44:25.573Z,17.70
2023-02-21T06:46:54.949Z,21.45
2023-02-21T06:49:25.570Z,24.05
2023-02-21T06:51:53.418Z,22.38
2023-02-21T06:54:21.831Z,19.30
2023-02-21T06:56:51.451Z,19.30
2023-02-21T06:59:19.229Z,21.88
2023-02-21T07:01:49.313Z,23.40
2023-02-21T07:04:16.953Z,19.58
2023-02-21T07:06:44.640Z,19.80
2023-02-21T07:09:12.490Z,20.90
2023-02-21T07:11:40.641Z,21.83
2023-02-21T07:14:11.416Z,21.23
2023-02-21T07:16:46.787Z,23.30
2023-02-21T07:21:44.523Z,19.67
2023-02-21T07:24:15.178Z,22.75
2023-02-21T07:26:46.099Z,23.25
2023-02-21T07:29:14.334Z,23.48
2023-02-21T07:31:46.613Z,23.25
2023-02-21T07:34:15.327Z,21.83
2023-02-21T07:36:43.265Z,22.17
2023-02-21T07:39:13.715Z,22.70
2023-02-21T07:41:41.514Z,20.92
2023-02-21T07:44:10.577Z,21.33
2023-02-21T07:46:39.620Z,22.23
2023-02-21T07:49:09.718Z,20.90
2023-02-21T07:51:37.570Z,23.38
2023-02-21T07:54:05.288Z,24.55
2023-02-21T07:56:32.952Z,21.02
2023-02-21T07:59:03.284Z,21.23
2023-02-21T08:01:30.886Z,18.13
2023-02-21T08:04:02.526Z,22.25
2023-02-21T08:06:33.875Z,24.38
2023-02-21T08:09:07.194Z,21.08
2023-02-21T08:11:36.843Z,22.90
2023-02-21T08:14:08.055Z,22.77
2023-02-21T08:16:35.676Z,21.77
2023-02-21T08:19:05.758Z,21.40
2023-02-21T08:21:33.352Z,21.75
2023-02-21T08:24:00.949Z,21.50
2023-02-21T08:26:28.796Z,22.70
2023-02-21T08:29:00.852Z,20.48
2023-02-21T08:31:28.670Z,21.25
2023-02-21T08:33:58.968Z,19.88
2023-02-21T08:36:34.093Z,21.80
2023-02-21T08:39:02.009Z,24.15
2023-02-21T08:41:45.286Z,22.13
2023-02-21T08:44:18.784Z,19.73
2023-02-21T08:46:49.890Z,21.75
2023-02-21T08:49:17.682Z,21.02
2023-02-21T08:51:45.461Z,19.98
2023-02-21T08:54:16.204Z,18.48
2023-02-21T08:56:43.804Z,20.13
2023-02-21T08:59:11.566Z,19.95
2023-02-21T09:01:43.430Z,19.95
2023-02-21T09:04:12.373Z,19.80
2023-02-21T09:06:40.139Z,19.88
2023-02-21T09:09:12.100Z,20.40
2023-02-21T09:11:39.982Z,20.17
2023-02-21T09:14:09.890Z,19.85
2023-02-21T09:16:42.012Z,20.75
2023-02-21T09:21:49.682Z,20.33
2023-02-21T09:24:26.055Z,19.45
2023-02-21T09:27:03.344Z,19.10
2023-02-21T09:29:45.042Z,19.17
2023-02-21T09:32:13.573Z,20.30
2023-02-21T09:34:41.552Z,19.27
2023-02-21T09:37:11.692Z,18.17
2023-02-21T09:39:39.545Z,18.20
2023-02-21T09:42:07.362Z,18.00
2023-02-21T09:44:35.417Z,18.90
2023-02-21T09:47:08.086Z,17.63
2023-02-21T09:49:41.894Z,17.48
2023-02-21T09:52:34.515Z,18.37
2023-02-21T09:55:53.515Z,20.45
2023-02-21T09:59:14.416Z,17.25
2023-02-21T10:11:29.392Z,17.88
2023-02-21T10:57:23.699Z,21.52
2023-02-21T10:59:51.955Z,20.80
2023-02-21T11:03:38.382Z,20.15
2023-02-21T11:19:22.230Z,13.75
2023-02-21T11:22:45.904Z,18.95
2023-02-21T11:26:05.573Z,18.63
2023-02-21T11:30:00.760Z,20.23
2023-02-21T11:40:04.139Z,17.17
2023-02-21T11:42:37.201Z,19.70
2023-02-21T11:45:32.717Z,15.80
2023-02-21T11:59:28.154Z,21.85
2023-02-21T12:02:49.691Z,18.98
2023-02-21T12:05:46.157Z,16.48
2023-02-21T12:10:08.572Z,17.67
2023-02-21T12:21:25.592Z,14.25
2023-02-21T12:24:43.256Z,13.70
2023-02-21T12:32:37.042Z,11.35
2023-02-21T12:35:54.857Z,10.73
2023-02-21T13:23:42.782Z,7.28
2023-02-21T13:35:25.926Z,7.65
2023-02-21T13:37:58.575Z,7.72
2023-02-21T13:40:36.995Z,8.07
2023-02-21T13:46:57.227Z,7.00
2023-02-21T13:58:20.189Z,5.82
2023-02-21T14:01:31.801Z,5.30
2023-02-21T14:17:21.122Z,6.03
2023-02-21T14:20:22.605Z,5.53
2023-02-21T14:24:04.546Z,6.57
2023-02-21T14:35:49.772Z,4.40
2023-02-21T14:38:51.035Z,4.25
2023-02-21T14:50:34.782Z,4.57
2023-02-21T15:13:38.055Z,3.92
2023-02-21T15:21:22.506Z,3.92
2023-02-21T15:24:13.092Z,4.13
2023-02-21T15:26:45.431Z,4.75
2023-02-21T15:29:26.002Z,4.05
2023-02-21T15:31:58.800Z,4.03
2023-02-21T15:34:34.284Z,4.22
2023-02-21T15:37:24.880Z,4.05
2023-02-21T15:40:00.167Z,5.32
2023-02-21T15:42:31.645Z,4.57
2023-02-21T15:45:19.124Z,4.72
2023-02-21T15:47:50.093Z,5.97
2023-02-21T15:50:27.565Z,4.72
2023-02-21T15:52:55.790Z,5.43
2023-02-21T15:55:23.513Z,5.47
2023-02-21T15:58:06.737Z,6.10
2023-02-21T16:00:36.012Z,4.70
2023-02-21T16:03:29.148Z,5.60
2023-02-21T16:06:15.582Z,5.40
2023-02-21T16:09:05.751Z,5.43
2023-02-21T16:11:48.414Z,5.05
2023-02-21T16:14:43.360Z,6.20
2023-02-21T16:17:30.324Z,4.80
2023-02-21T16:20:21.687Z,4.60
2023-02-21T16:23:38.847Z,4.53
2023-02-21T16:26:34.186Z,5.53
2023-02-21T16:29:03.674Z,4.47
2023-02-21T16:31:33.974Z,5.55
2023-02-21T16:34:02.809Z,5.07
2023-02-21T16:36:32.029Z,6.65
2023-02-21T16:38:59.691Z,5.90
2023-02-21T16:41:30.283Z,5.75
2023-02-21T16:43:57.920Z,6.68
2023-02-21T16:46:29.960Z,6.38
2023-02-21T16:49:05.735Z,6.40
2023-02-21T17:00:43.256Z,5.97
2023-02-21T17:08:02.484Z,5.88
2023-02-21T17:11:08.927Z,5.80
2023-02-21T17:13:48.339Z,4.55
2023-02-21T17:16:18.984Z,4.55
2023-02-21T17:19:05.231Z,5.10
2023-02-21T17:29:52.324Z,4.95
2023-02-21T17:32:29.706Z,4.97
2023-02-21T17:35:01.692Z,4.97
2023-02-21T17:38:04.132Z,6.07
2023-02-21T17:40:32.252Z,5.88
2023-02-21T17:43:14.219Z,4.90
2023-02-21T17:46:02.356Z,5.22
2023-02-21T17:48:51.304Z,6.53
2023-02-21T17:51:56.102Z,5.10
2023-02-21T18:11:18.264Z,7.30
2023-02-21T18:40:14.581Z,6.63
2023-02-21T18:51:34.694Z,6.75
2023-02-21T18:59:40.890Z,8.52
2023-02-21T19:10:50.850Z,8.50
2023-02-21T19:13:55.755Z,8.65
2023-02-21T19:18:31.957Z,8.85
2023-02-21T19:23:59.203Z,9.85
2023-02-21T19:26:49.587Z,10.00
2023-02-21T19:29:38.388Z,9.20
2023-02-21T19:40:57.059Z,9.57
2023-02-21T19:48:22.970Z,10.05
2023-02-21T19:51:24.233Z,10.48
2023-02-21T19:59:25.715Z,9.75
2023-02-21T20:02:30.404Z,9.52
2023-02-21T20:09:10.134Z,9.88
2023-02-21T20:16:44.315Z,10.38
2023-02-21T21:04:20.843Z,13.95
2023-02-21T21:06:58.838Z,15.32
2023-02-21T21:09:56.367Z,14.48
2023-02-21T21:13:02.116Z,14.23
2023-02-21T21:15:48.870Z,14.48
2023-02-21T21:19:46.072Z,13.18
2023-02-21T21:22:55.516Z,14.77
2023-02-21T21:25:29.120Z,13.35
2023-02-21T21:28:51.369Z,14.70
2023-02-21T21:31:28.167Z,14.25
2023-02-21T21:34:32.013Z,14.93
2023-02-21T21:37:43.287Z,15.65
2023-02-21T21:40:54.553Z,14.55
2023-02-21T21:43:29.748Z,16.15
2023-02-21T21:46:14.689Z,15.57
2023-02-21T21:48:46.316Z,14.85
2023-02-21T22:01:07.646Z,13.73
2023-02-21T22:17:19.230Z,12.32
2023-02-21T22:20:21.723Z,12.75
2023-02-21T22:23:35.023Z,13.32
2023-02-21T22:26:13.940Z,11.13
2023-02-21T22:28:58.254Z,10.93
2023-02-21T22:36:14.689Z,12.82
2023-02-21T22:38:36.967Z,12.30
2023-02-21T22:41:59.441Z,11.50
2023-02-21T22:44:55.262Z,13.88
2023-02-21T22:47:53.819Z,11.85
2023-02-21T22:50:40.553Z,11.32
2023-02-21T22:53:34.811Z,11.85
2023-02-21T22:56:25.671Z,13.82
2023-02-21T22:59:06.403Z,12.75
2023-02-21T23:01:46.845Z,10.75
2023-02-21T23:04:57.029Z,11.70
2023-02-21T23:07:33.209Z,12.18
2023-02-21T23:10:35.475Z,11.70
2023-02-21T23:13:23.586Z,11.75
2023-02-21T23:16:05.381Z,11.88
2023-02-21T23:18:51.980Z,12.43
2023-02-21T23:21:35.852Z,11.40
2023-02-21T23:24:16.111Z,11.77
2023-02-21T23:27:12.234Z,11.75
2023-02-21T23:30:00.641Z,12.10
2023-02-21T23:33:01.825Z,12.05
2023-02-21T23:37:18.130Z,10.85
2023-02-21T23:38:54.400Z,12.45
2023-02-21T23:41:58.205Z,11.25
2023-02-21T23:45:01.188Z,10.40
2023-02-21T23:47:41.096Z,11.45
2023-02-21T23:50:49.046Z,9.90
2023-02-21T23:53:34.412Z,10.05
2023-02-21T23:56:31.182Z,11.93
2023-02-21T23:59:12.547Z,10.13
